sensor_id;sensor_type;location;lat;lon;timestamp;P1;durP1;ratioP1;P2;durP2;ratioP2
40453;SDS011;26160;51.858;4.398;2022-12-07T00:01:38;8.97;;;4.17;;
40453;SDS011;26160;51.858;4.398;2022-12-07T00:04:07;11.10;;;2.87;;
40453;SDS011;26160;51.858;4.398;2022-12-07T00:06:36;14.67;;;4.30;;
40453;SDS011;26160;51.858;4.398;2022-12-07T00:09:09;8.37;;;4.43;;
40453;SDS011;26160;51.858;4.398;2022-12-07T00:11:37;14.80;;;4.63;;
40453;SDS011;26160;51.858;4.398;2022-12-07T00:14:05;14.57;;;4.67;;
40453;SDS011;26160;51.858;4.398;2022-12-07T00:16:34;14.97;;;4.53;;
40453;SDS011;26160;51.858;4.398;2022-12-07T00:19:00;10.20;;;4.27;;
40453;SDS011;26160;51.858;4.398;2022-12-07T00:21:29;14.90;;;5.90;;
40453;SDS011;26160;51.858;4.398;2022-12-07T00:23:57;15.60;;;6.40;;
40453;SDS011;26160;51.858;4.398;2022-12-07T00:26:24;18.23;;;7.67;;
40453;SDS011;26160;51.858;4.398;2022-12-07T00:28:56;12.03;;;6.20;;
40453;SDS011;26160;51.858;4.398;2022-12-07T00:31:28;9.95;;;5.40;;
40453;SDS011;26160;51.858;4.398;2022-12-07T00:33:57;14.40;;;5.83;;
40453;SDS011;26160;51.858;4.398;2022-12-07T00:36:24;17.43;;;7.03;;
40453;SDS011;26160;51.858;4.398;2022-12-07T00:38:50;14.00;;;7.07;;
40453;SDS011;26160;51.858;4.398;2022-12-07T00:41:20;14.33;;;6.87;;
40453;SDS011;26160;51.858;4.398;2022-12-07T00:43:48;16.57;;;8.00;;
40453;SDS011;26160;51.858;4.398;2022-12-07T00:46:16;29.10;;;10.30;;
40453;SDS011;26160;51.858;4.398;2022-12-07T00:48:43;31.70;;;11.73;;
40453;SDS011;26160;51.858;4.398;2022-12-07T00:51:10;26.27;;;12.33;;
40453;SDS011;26160;51.858;4.398;2022-12-07T00:53:38;24.47;;;8.53;;
40453;SDS011;26160;51.858;4.398;2022-12-07T00:56:08;22.77;;;9.57;;
40453;SDS011;26160;51.858;4.398;2022-12-07T00:58:38;18.80;;;6.97;;
40453;SDS011;26160;51.858;4.398;2022-12-07T01:01:05;17.73;;;7.90;;
40453;SDS011;26160;51.858;4.398;2022-12-07T01:03:33;19.97;;;7.73;;
40453;SDS011;26160;51.858;4.398;2022-12-07T01:06:00;19.07;;;9.03;;
40453;SDS011;26160;51.858;4.398;2022-12-07T01:08:27;14.90;;;7.73;;
40453;SDS011;26160;51.858;4.398;2022-12-07T01:10:58;28.60;;;12.60;;
40453;SDS011;26160;51.858;4.398;2022-12-07T01:13:25;24.03;;;12.03;;
40453;SDS011;26160;51.858;4.398;2022-12-07T01:15:55;27.47;;;12.37;;
40453;SDS011;26160;51.858;4.398;2022-12-07T01:18:25;25.53;;;12.67;;
40453;SDS011;26160;51.858;4.398;2022-12-07T01:20:57;18.80;;;10.50;;
40453;SDS011;26160;51.858;4.398;2022-12-07T01:23:28;23.23;;;10.97;;
40453;SDS011;26160;51.858;4.398;2022-12-07T01:25:58;21.10;;;9.60;;
40453;SDS011;26160;51.858;4.398;2022-12-07T01:28:26;15.25;;;6.75;;
40453;SDS011;26160;51.858;4.398;2022-12-07T01:30:57;12.97;;;6.63;;
40453;SDS011;26160;51.858;4.398;2022-12-07T01:33:25;12.67;;;5.77;;
40453;SDS011;26160;51.858;4.398;2022-12-07T01:35:53;18.83;;;6.70;;
40453;SDS011;26160;51.858;4.398;2022-12-07T01:38:19;16.50;;;6.53;;
40453;SDS011;26160;51.858;4.398;2022-12-07T01:40:45;13.67;;;5.40;;
40453;SDS011;26160;51.858;4.398;2022-12-07T01:43:18;11.53;;;4.63;;
40453;SDS011;26160;51.858;4.398;2022-12-07T01:45:45;15.17;;;5.27;;
40453;SDS011;26160;51.858;4.398;2022-12-07T01:48:12;8.97;;;4.97;;
40453;SDS011;26160;51.858;4.398;2022-12-07T01:50:43;10.03;;;4.33;;
40453;SDS011;26160;51.858;4.398;2022-12-07T01:53:10;10.97;;;5.40;;
40453;SDS011;26160;51.858;4.398;2022-12-07T01:55:39;7.87;;;4.13;;
40453;SDS011;26160;51.858;4.398;2022-12-07T01:58:07;8.93;;;3.73;;
40453;SDS011;26160;51.858;4.398;2022-12-07T02:03:22;8.90;;;3.47;;
40453;SDS011;26160;51.858;4.398;2022-12-07T02:05:54;10.67;;;3.87;;
40453;SDS011;26160;51.858;4.398;2022-12-07T02:08:21;10.73;;;3.40;;
40453;SDS011;26160;51.858;4.398;2022-12-07T02:10:48;11.50;;;2.47;;
40453;SDS011;26160;51.858;4.398;2022-12-07T02:13:19;10.03;;;1.53;;
40453;SDS011;26160;51.858;4.398;2022-12-07T02:21:39;8.70;;;1.33;;
40453;SDS011;26160;51.858;4.398;2022-12-07T02:24:33;19.33;;;2.00;;
40453;SDS011;26160;51.858;4.398;2022-12-07T02:30:09;5.70;;;1.47;;
40453;SDS011;26160;51.858;4.398;2022-12-07T02:32:45;10.03;;;1.80;;
40453;SDS011;26160;51.858;4.398;2022-12-07T02:35:29;7.80;;;1.63;;
40453;SDS011;26160;51.858;4.398;2022-12-07T02:38:07;6.77;;;1.33;;
40453;SDS011;26160;51.858;4.398;2022-12-07T02:40:54;8.03;;;1.70;;
40453;SDS011;26160;51.858;4.398;2022-12-07T02:43:34;4.53;;;1.20;;
40453;SDS011;26160;51.858;4.398;2022-12-07T02:46:11;7.10;;;1.23;;
40453;SDS011;26160;51.858;4.398;2022-12-07T02:48:42;9.10;;;1.87;;
40453;SDS011;26160;51.858;4.398;2022-12-07T02:51:30;10.63;;;1.77;;
40453;SDS011;26160;51.858;4.398;2022-12-07T02:53:58;11.23;;;1.63;;
40453;SDS011;26160;51.858;4.398;2022-12-07T02:56:37;7.97;;;2.23;;
40453;SDS011;26160;51.858;4.398;2022-12-07T02:59:17;8.63;;;1.57;;
40453;SDS011;26160;51.858;4.398;2022-12-07T03:02:08;4.20;;;1.40;;
40453;SDS011;26160;51.858;4.398;2022-12-07T03:07:42;5.90;;;1.40;;
40453;SDS011;26160;51.858;4.398;2022-12-07T03:10:29;8.83;;;1.70;;
40453;SDS011;26160;51.858;4.398;2022-12-07T03:15:49;12.27;;;1.77;;
40453;SDS011;26160;51.858;4.398;2022-12-07T03:18:28;5.30;;;1.50;;
40453;SDS011;26160;51.858;4.398;2022-12-07T03:20:58;5.53;;;1.20;;
40453;SDS011;26160;51.858;4.398;2022-12-07T03:23:31;5.15;;;1.65;;
40453;SDS011;26160;51.858;4.398;2022-12-07T03:26:01;11.20;;;2.17;;
40453;SDS011;26160;51.858;4.398;2022-12-07T03:28:33;3.67;;;1.27;;
40453;SDS011;26160;51.858;4.398;2022-12-07T03:31:05;8.47;;;2.00;;
40453;SDS011;26160;51.858;4.398;2022-12-07T03:33:36;7.40;;;1.57;;
40453;SDS011;26160;51.858;4.398;2022-12-07T03:36:21;14.83;;;2.43;;
40453;SDS011;26160;51.858;4.398;2022-12-07T03:39:02;6.33;;;2.37;;
40453;SDS011;26160;51.858;4.398;2022-12-07T03:41:49;11.23;;;2.15;;
40453;SDS011;26160;51.858;4.398;2022-12-07T03:44:19;7.43;;;1.80;;
40453;SDS011;26160;51.858;4.398;2022-12-07T03:49:50;9.17;;;2.07;;
40453;SDS011;26160;51.858;4.398;2022-12-07T03:52:24;6.23;;;2.00;;
40453;SDS011;26160;51.858;4.398;2022-12-07T03:55:11;3.53;;;1.40;;
40453;SDS011;26160;51.858;4.398;2022-12-07T03:57:43;7.27;;;1.73;;
40453;SDS011;26160;51.858;4.398;2022-12-07T04:00:13;2.93;;;1.33;;
40453;SDS011;26160;51.858;4.398;2022-12-07T04:02:39;8.43;;;1.67;;
40453;SDS011;26160;51.858;4.398;2022-12-07T04:05:07;9.17;;;1.77;;
40453;SDS011;26160;51.858;4.398;2022-12-07T04:07:33;11.13;;;1.77;;
40453;SDS011;26160;51.858;4.398;2022-12-07T04:09:59;8.23;;;1.20;;
40453;SDS011;26160;51.858;4.398;2022-12-07T04:12:25;15.40;;;2.07;;
40453;SDS011;26160;51.858;4.398;2022-12-07T04:14:51;4.43;;;1.20;;
40453;SDS011;26160;51.858;4.398;2022-12-07T04:17:18;6.67;;;1.40;;
40453;SDS011;26160;51.858;4.398;2022-12-07T04:19:44;8.30;;;1.60;;
40453;SDS011;26160;51.858;4.398;2022-12-07T04:22:10;7.57;;;1.40;;
40453;SDS011;26160;51.858;4.398;2022-12-07T04:24:36;9.67;;;1.90;;
40453;SDS011;26160;51.858;4.398;2022-12-07T04:27:02;11.73;;;2.20;;
40453;SDS011;26160;51.858;4.398;2022-12-07T04:29:28;11.77;;;1.70;;
40453;SDS011;26160;51.858;4.398;2022-12-07T04:31:54;6.13;;;1.70;;
40453;SDS011;26160;51.858;4.398;2022-12-07T04:34:20;5.13;;;1.63;;
40453;SDS011;26160;51.858;4.398;2022-12-07T04:36:47;8.03;;;1.63;;
40453;SDS011;26160;51.858;4.398;2022-12-07T04:39:18;9.20;;;1.60;;
40453;SDS011;26160;51.858;4.398;2022-12-07T04:41:53;6.97;;;1.37;;
40453;SDS011;26160;51.858;4.398;2022-12-07T04:44:20;6.20;;;1.17;;
40453;SDS011;26160;51.858;4.398;2022-12-07T04:46:46;6.73;;;1.20;;
40453;SDS011;26160;51.858;4.398;2022-12-07T04:49:13;7.83;;;1.20;;
40453;SDS011;26160;51.858;4.398;2022-12-07T04:51:40;5.33;;;1.57;;
40453;SDS011;26160;51.858;4.398;2022-12-07T04:54:07;9.50;;;1.17;;
40453;SDS011;26160;51.858;4.398;2022-12-07T04:56:33;5.83;;;1.10;;
40453;SDS011;26160;51.858;4.398;2022-12-07T04:59:00;8.97;;;1.60;;
40453;SDS011;26160;51.858;4.398;2022-12-07T05:01:27;8.80;;;1.30;;
40453;SDS011;26160;51.858;4.398;2022-12-07T05:03:53;7.47;;;1.53;;
40453;SDS011;26160;51.858;4.398;2022-12-07T05:06:19;10.97;;;1.60;;
40453;SDS011;26160;51.858;4.398;2022-12-07T05:08:45;11.07;;;1.80;;
40453;SDS011;26160;51.858;4.398;2022-12-07T05:11:12;8.10;;;1.47;;
40453;SDS011;26160;51.858;4.398;2022-12-07T05:13:58;12.37;;;1.53;;
40453;SDS011;26160;51.858;4.398;2022-12-07T05:16:24;8.20;;;2.03;;
40453;SDS011;26160;51.858;4.398;2022-12-07T05:18:51;21.03;;;5.63;;
40453;SDS011;26160;51.858;4.398;2022-12-07T05:21:17;10.90;;;4.77;;
40453;SDS011;26160;51.858;4.398;2022-12-07T05:23:43;15.63;;;4.70;;
40453;SDS011;26160;51.858;4.398;2022-12-07T05:26:09;12.60;;;4.83;;
40453;SDS011;26160;51.858;4.398;2022-12-07T05:28:36;16.00;;;4.80;;
40453;SDS011;26160;51.858;4.398;2022-12-07T05:31:05;14.93;;;5.37;;
40453;SDS011;26160;51.858;4.398;2022-12-07T05:33:31;10.27;;;4.00;;
40453;SDS011;26160;51.858;4.398;2022-12-07T05:35:58;16.67;;;3.97;;
40453;SDS011;26160;51.858;4.398;2022-12-07T05:38:24;12.00;;;3.00;;
40453;SDS011;26160;51.858;4.398;2022-12-07T05:40:53;11.90;;;2.67;;
40453;SDS011;26160;51.858;4.398;2022-12-07T05:43:19;11.53;;;3.30;;
40453;SDS011;26160;51.858;4.398;2022-12-07T05:45:45;14.80;;;3.20;;
40453;SDS011;26160;51.858;4.398;2022-12-07T05:48:11;15.70;;;3.10;;
40453;SDS011;26160;51.858;4.398;2022-12-07T05:50:37;17.03;;;3.40;;
40453;SDS011;26160;51.858;4.398;2022-12-07T05:53:03;12.30;;;2.50;;
40453;SDS011;26160;51.858;4.398;2022-12-07T05:55:29;11.83;;;2.43;;
40453;SDS011;26160;51.858;4.398;2022-12-07T05:57:55;11.20;;;2.30;;
40453;SDS011;26160;51.858;4.398;2022-12-07T06:00:40;5.67;;;1.47;;
40453;SDS011;26160;51.858;4.398;2022-12-07T06:03:06;16.47;;;2.13;;
40453;SDS011;26160;51.858;4.398;2022-12-07T06:05:35;14.90;;;2.27;;
40453;SDS011;26160;51.858;4.398;2022-12-07T06:08:01;21.60;;;2.77;;
40453;SDS011;26160;51.858;4.398;2022-12-07T06:10:27;8.70;;;2.00;;
40453;SDS011;26160;51.858;4.398;2022-12-07T06:12:53;18.57;;;2.37;;
40453;SDS011;26160;51.858;4.398;2022-12-07T06:15:19;13.30;;;2.00;;
40453;SDS011;26160;51.858;4.398;2022-12-07T06:17:46;13.80;;;2.03;;
40453;SDS011;26160;51.858;4.398;2022-12-07T06:20:13;10.97;;;1.97;;
40453;SDS011;26160;51.858;4.398;2022-12-07T06:22:39;14.53;;;1.80;;
40453;SDS011;26160;51.858;4.398;2022-12-07T06:25:05;16.73;;;1.73;;
40453;SDS011;26160;51.858;4.398;2022-12-07T06:27:32;17.07;;;1.87;;
40453;SDS011;26160;51.858;4.398;2022-12-07T06:29:58;8.30;;;1.00;;
40453;SDS011;26160;51.858;4.398;2022-12-07T06:32:25;9.77;;;1.60;;
40453;SDS011;26160;51.858;4.398;2022-12-07T06:34:51;6.20;;;1.20;;
40453;SDS011;26160;51.858;4.398;2022-12-07T06:37:18;7.17;;;1.47;;
40453;SDS011;26160;51.858;4.398;2022-12-07T06:39:44;14.47;;;1.40;;
40453;SDS011;26160;51.858;4.398;2022-12-07T06:42:11;13.80;;;1.40;;
40453;SDS011;26160;51.858;4.398;2022-12-07T06:44:37;13.27;;;1.50;;
40453;SDS011;26160;51.858;4.398;2022-12-07T06:47:03;12.30;;;1.47;;
40453;SDS011;26160;51.858;4.398;2022-12-07T06:49:31;13.83;;;1.00;;
40453;SDS011;26160;51.858;4.398;2022-12-07T06:51:57;11.60;;;1.50;;
40453;SDS011;26160;51.858;4.398;2022-12-07T06:54:23;9.63;;;1.77;;
40453;SDS011;26160;51.858;4.398;2022-12-07T06:56:49;9.17;;;1.30;;
40453;SDS011;26160;51.858;4.398;2022-12-07T06:59:15;11.33;;;1.40;;
40453;SDS011;26160;51.858;4.398;2022-12-07T07:01:41;9.30;;;1.17;;
40453;SDS011;26160;51.858;4.398;2022-12-07T07:04:07;10.77;;;1.37;;
40453;SDS011;26160;51.858;4.398;2022-12-07T07:06:33;12.73;;;1.70;;
40453;SDS011;26160;51.858;4.398;2022-12-07T07:09:00;9.73;;;1.20;;
40453;SDS011;26160;51.858;4.398;2022-12-07T07:11:30;13.50;;;1.83;;
40453;SDS011;26160;51.858;4.398;2022-12-07T07:13:56;8.77;;;1.50;;
40453;SDS011;26160;51.858;4.398;2022-12-07T07:16:24;14.43;;;2.37;;
40453;SDS011;26160;51.858;4.398;2022-12-07T07:18:50;9.23;;;1.93;;
40453;SDS011;26160;51.858;4.398;2022-12-07T07:21:16;14.63;;;2.10;;
40453;SDS011;26160;51.858;4.398;2022-12-07T07:23:42;16.37;;;3.13;;
40453;SDS011;26160;51.858;4.398;2022-12-07T07:26:08;10.73;;;2.47;;
40453;SDS011;26160;51.858;4.398;2022-12-07T07:28:34;14.83;;;2.37;;
40453;SDS011;26160;51.858;4.398;2022-12-07T07:31:00;10.10;;;2.63;;
40453;SDS011;26160;51.858;4.398;2022-12-07T07:33:26;8.77;;;2.43;;
40453;SDS011;26160;51.858;4.398;2022-12-07T07:35:53;16.73;;;1.80;;
40453;SDS011;26160;51.858;4.398;2022-12-07T07:38:19;8.30;;;1.50;;
40453;SDS011;26160;51.858;4.398;2022-12-07T07:40:46;17.70;;;1.73;;
40453;SDS011;26160;51.858;4.398;2022-12-07T07:43:12;8.90;;;1.20;;
40453;SDS011;26160;51.858;4.398;2022-12-07T07:45:38;5.93;;;1.10;;
40453;SDS011;26160;51.858;4.398;2022-12-07T07:48:04;11.83;;;1.50;;
40453;SDS011;26160;51.858;4.398;2022-12-07T07:50:30;10.47;;;1.50;;
40453;SDS011;26160;51.858;4.398;2022-12-07T07:52:57;12.87;;;1.87;;
40453;SDS011;26160;51.858;4.398;2022-12-07T07:55:23;13.40;;;2.17;;
40453;SDS011;26160;51.858;4.398;2022-12-07T07:57:49;7.83;;;1.30;;
40453;SDS011;26160;51.858;4.398;2022-12-07T08:00:15;7.03;;;1.80;;
40453;SDS011;26160;51.858;4.398;2022-12-07T08:02:42;13.17;;;1.87;;
40453;SDS011;26160;51.858;4.398;2022-12-07T08:05:10;8.93;;;1.83;;
40453;SDS011;26160;51.858;4.398;2022-12-07T08:07:37;10.60;;;1.60;;
40453;SDS011;26160;51.858;4.398;2022-12-07T08:10:03;10.17;;;1.77;;
40453;SDS011;26160;51.858;4.398;2022-12-07T08:12:30;7.47;;;1.70;;
40453;SDS011;26160;51.858;4.398;2022-12-07T08:14:56;9.57;;;1.63;;
40453;SDS011;26160;51.858;4.398;2022-12-07T08:17:22;10.90;;;3.03;;
40453;SDS011;26160;51.858;4.398;2022-12-07T08:19:51;10.17;;;2.07;;
40453;SDS011;26160;51.858;4.398;2022-12-07T08:22:17;17.97;;;2.47;;
40453;SDS011;26160;51.858;4.398;2022-12-07T08:24:44;14.40;;;2.43;;
40453;SDS011;26160;51.858;4.398;2022-12-07T08:27:11;10.30;;;2.20;;
40453;SDS011;26160;51.858;4.398;2022-12-07T08:29:38;12.13;;;2.40;;
40453;SDS011;26160;51.858;4.398;2022-12-07T08:32:04;15.77;;;2.23;;
40453;SDS011;26160;51.858;4.398;2022-12-07T08:34:30;10.03;;;2.77;;
40453;SDS011;26160;51.858;4.398;2022-12-07T08:36:56;8.20;;;2.70;;
40453;SDS011;26160;51.858;4.398;2022-12-07T08:39:22;13.13;;;2.93;;
40453;SDS011;26160;51.858;4.398;2022-12-07T08:41:48;7.67;;;2.40;;
40453;SDS011;26160;51.858;4.398;2022-12-07T08:44:14;13.93;;;2.63;;
40453;SDS011;26160;51.858;4.398;2022-12-07T08:46:42;7.47;;;1.90;;
40453;SDS011;26160;51.858;4.398;2022-12-07T08:49:18;10.53;;;2.90;;
40453;SDS011;26160;51.858;4.398;2022-12-07T08:51:48;8.07;;;3.20;;
40453;SDS011;26160;51.858;4.398;2022-12-07T08:54:15;8.10;;;3.10;;
40453;SDS011;26160;51.858;4.398;2022-12-07T08:56:44;9.77;;;3.80;;
40453;SDS011;26160;51.858;4.398;2022-12-07T08:59:15;12.27;;;4.13;;
40453;SDS011;26160;51.858;4.398;2022-12-07T09:01:43;9.30;;;1.43;;
40453;SDS011;26160;51.858;4.398;2022-12-07T09:04:09;9.60;;;1.60;;
40453;SDS011;26160;51.858;4.398;2022-12-07T09:06:35;10.10;;;1.87;;
40453;SDS011;26160;51.858;4.398;2022-12-07T09:09:02;7.90;;;1.20;;
40453;SDS011;26160;51.858;4.398;2022-12-07T09:11:29;7.87;;;1.27;;
40453;SDS011;26160;51.858;4.398;2022-12-07T09:13:55;6.33;;;1.00;;
40453;SDS011;26160;51.858;4.398;2022-12-07T09:16:22;5.13;;;0.93;;
40453;SDS011;26160;51.858;4.398;2022-12-07T09:18:48;4.50;;;0.90;;
40453;SDS011;26160;51.858;4.398;2022-12-07T09:21:14;5.23;;;1.53;;
40453;SDS011;26160;51.858;4.398;2022-12-07T09:23:41;1.20;;;0.83;;
40453;SDS011;26160;51.858;4.398;2022-12-07T09:26:10;6.80;;;1.33;;
40453;SDS011;26160;51.858;4.398;2022-12-07T09:28:36;13.47;;;2.27;;
40453;SDS011;26160;51.858;4.398;2022-12-07T09:31:03;5.67;;;0.87;;
40453;SDS011;26160;51.858;4.398;2022-12-07T09:33:30;4.60;;;1.23;;
40453;SDS011;26160;51.858;4.398;2022-12-07T09:35:56;4.93;;;1.17;;
40453;SDS011;26160;51.858;4.398;2022-12-07T09:38:22;4.90;;;1.47;;
40453;SDS011;26160;51.858;4.398;2022-12-07T09:40:49;5.57;;;1.17;;
40453;SDS011;26160;51.858;4.398;2022-12-07T09:43:16;4.07;;;1.33;;
40453;SDS011;26160;51.858;4.398;2022-12-07T09:45:45;8.43;;;2.50;;
40453;SDS011;26160;51.858;4.398;2022-12-07T09:51:30;4.30;;;1.13;;
40453;SDS011;26160;51.858;4.398;2022-12-07T09:53:56;7.23;;;1.27;;
40453;SDS011;26160;51.858;4.398;2022-12-07T09:56:24;6.10;;;0.80;;
40453;SDS011;26160;51.858;4.398;2022-12-07T09:58:51;9.87;;;1.10;;
40453;SDS011;26160;51.858;4.398;2022-12-07T10:01:23;2.10;;;0.60;;
40453;SDS011;26160;51.858;4.398;2022-12-07T10:03:58;4.73;;;0.93;;
40453;SDS011;26160;51.858;4.398;2022-12-07T10:06:26;6.90;;;1.00;;
40453;SDS011;26160;51.858;4.398;2022-12-07T10:08:52;9.57;;;2.20;;
40453;SDS011;26160;51.858;4.398;2022-12-07T10:11:19;19.70;;;4.97;;
40453;SDS011;26160;51.858;4.398;2022-12-07T10:13:46;16.77;;;4.50;;
40453;SDS011;26160;51.858;4.398;2022-12-07T10:18:49;6.23;;;2.43;;
40453;SDS011;26160;51.858;4.398;2022-12-07T10:21:17;7.00;;;2.57;;
40453;SDS011;26160;51.858;4.398;2022-12-07T10:24:05;16.20;;;2.50;;
40453;SDS011;26160;51.858;4.398;2022-12-07T10:29:18;9.10;;;1.47;;
40453;SDS011;26160;51.858;4.398;2022-12-07T10:34:41;13.17;;;3.10;;
40453;SDS011;26160;51.858;4.398;2022-12-07T10:39:46;8.70;;;1.77;;
40453;SDS011;26160;51.858;4.398;2022-12-07T10:42:21;8.10;;;1.60;;
40453;SDS011;26160;51.858;4.398;2022-12-07T10:45:08;9.53;;;1.47;;
40453;SDS011;26160;51.858;4.398;2022-12-07T11:20:28;7.93;;;1.10;;
40453;SDS011;26160;51.858;4.398;2022-12-07T11:26:08;9.30;;;2.03;;
40453;SDS011;26160;51.858;4.398;2022-12-07T11:31:34;7.20;;;1.63;;
40453;SDS011;26160;51.858;4.398;2022-12-07T11:34:06;11.70;;;2.53;;
40453;SDS011;26160;51.858;4.398;2022-12-07T11:41:44;7.13;;;1.17;;
40453;SDS011;26160;51.858;4.398;2022-12-07T11:49:41;13.33;;;0.97;;
40453;SDS011;26160;51.858;4.398;2022-12-07T11:54:50;9.17;;;1.00;;
40453;SDS011;26160;51.858;4.398;2022-12-07T11:57:30;8.60;;;1.07;;
40453;SDS011;26160;51.858;4.398;2022-12-07T12:00:06;6.73;;;0.93;;
40453;SDS011;26160;51.858;4.398;2022-12-07T12:02:45;7.60;;;1.00;;
40453;SDS011;26160;51.858;4.398;2022-12-07T12:05:26;5.37;;;0.70;;
40453;SDS011;26160;51.858;4.398;2022-12-07T12:10:35;3.97;;;0.90;;
40453;SDS011;26160;51.858;4.398;2022-12-07T12:16:29;4.13;;;0.80;;
40453;SDS011;26160;51.858;4.398;2022-12-07T12:19:24;4.30;;;0.70;;
40453;SDS011;26160;51.858;4.398;2022-12-07T12:22:15;7.00;;;1.13;;
40453;SDS011;26160;51.858;4.398;2022-12-07T12:24:45;5.00;;;0.80;;
40453;SDS011;26160;51.858;4.398;2022-12-07T12:27:26;7.70;;;1.17;;
40453;SDS011;26160;51.858;4.398;2022-12-07T12:29:57;3.53;;;0.70;;
40453;SDS011;26160;51.858;4.398;2022-12-07T12:32:41;5.93;;;1.30;;
40453;SDS011;26160;51.858;4.398;2022-12-07T12:35:26;5.70;;;0.83;;
40453;SDS011;26160;51.858;4.398;2022-12-07T12:40:52;4.77;;;1.77;;
40453;SDS011;26160;51.858;4.398;2022-12-07T12:51:46;4.37;;;0.90;;
40453;SDS011;26160;51.858;4.398;2022-12-07T12:54:21;6.77;;;1.00;;
40453;SDS011;26160;51.858;4.398;2022-12-07T13:02:22;4.03;;;1.33;;
40453;SDS011;26160;51.858;4.398;2022-12-07T13:15:47;4.27;;;0.93;;
40453;SDS011;26160;51.858;4.398;2022-12-07T13:20:59;7.00;;;1.30;;
40453;SDS011;26160;51.858;4.398;2022-12-07T13:29:09;9.00;;;1.17;;
40453;SDS011;26160;51.858;4.398;2022-12-07T13:31:46;5.07;;;0.90;;
40453;SDS011;26160;51.858;4.398;2022-12-07T13:34:49;2.90;;;0.73;;
40453;SDS011;26160;51.858;4.398;2022-12-07T13:39:51;5.03;;;0.80;;
40453;SDS011;26160;51.858;4.398;2022-12-07T13:42:26;7.33;;;1.10;;
40453;SDS011;26160;51.858;4.398;2022-12-07T13:44:56;5.93;;;0.90;;
40453;SDS011;26160;51.858;4.398;2022-12-07T13:53:11;8.77;;;1.70;;
40453;SDS011;26160;51.858;4.398;2022-12-07T13:55:43;7.80;;;1.80;;
40453;SDS011;26160;51.858;4.398;2022-12-07T13:58:10;3.00;;;0.93;;
40453;SDS011;26160;51.858;4.398;2022-12-07T14:00:36;6.13;;;1.50;;
40453;SDS011;26160;51.858;4.398;2022-12-07T14:03:25;5.17;;;1.10;;
40453;SDS011;26160;51.858;4.398;2022-12-07T14:06:37;4.33;;;1.10;;
40453;SDS011;26160;51.858;4.398;2022-12-07T14:08:41;5.77;;;1.00;;
40453;SDS011;26160;51.858;4.398;2022-12-07T14:11:10;3.50;;;1.00;;
40453;SDS011;26160;51.858;4.398;2022-12-07T14:13:47;3.73;;;0.70;;
40453;SDS011;26160;51.858;4.398;2022-12-07T14:18:51;4.90;;;1.30;;
40453;SDS011;26160;51.858;4.398;2022-12-07T14:21:19;9.63;;;1.50;;
40453;SDS011;26160;51.858;4.398;2022-12-07T14:24:08;4.80;;;1.50;;
40453;SDS011;26160;51.858;4.398;2022-12-07T14:26:43;7.67;;;1.10;;
40453;SDS011;26160;51.858;4.398;2022-12-07T14:29:19;5.47;;;0.80;;
40453;SDS011;26160;51.858;4.398;2022-12-07T14:31:48;4.33;;;1.60;;
40453;SDS011;26160;51.858;4.398;2022-12-07T14:34:14;3.07;;;0.90;;
40453;SDS011;26160;51.858;4.398;2022-12-07T14:36:40;5.03;;;0.83;;
40453;SDS011;26160;51.858;4.398;2022-12-07T14:39:07;5.43;;;1.13;;
40453;SDS011;26160;51.858;4.398;2022-12-07T14:41:33;5.43;;;0.70;;
40453;SDS011;26160;51.858;4.398;2022-12-07T14:44:21;4.70;;;0.53;;
40453;SDS011;26160;51.858;4.398;2022-12-07T14:46:51;3.57;;;0.67;;
40453;SDS011;26160;51.858;4.398;2022-12-07T14:49:18;7.00;;;0.73;;
40453;SDS011;26160;51.858;4.398;2022-12-07T14:51:45;3.50;;;0.83;;
40453;SDS011;26160;51.858;4.398;2022-12-07T14:54:18;4.57;;;0.90;;
40453;SDS011;26160;51.858;4.398;2022-12-07T14:56:45;7.17;;;1.37;;
40453;SDS011;26160;51.858;4.398;2022-12-07T14:59:15;4.67;;;1.00;;
40453;SDS011;26160;51.858;4.398;2022-12-07T15:01:42;4.47;;;1.13;;
40453;SDS011;26160;51.858;4.398;2022-12-07T15:04:08;5.53;;;0.93;;
40453;SDS011;26160;51.858;4.398;2022-12-07T15:06:34;3.10;;;0.90;;
40453;SDS011;26160;51.858;4.398;2022-12-07T15:09:00;6.33;;;1.10;;
40453;SDS011;26160;51.858;4.398;2022-12-07T15:11:27;6.60;;;1.20;;
40453;SDS011;26160;51.858;4.398;2022-12-07T15:13:54;5.27;;;1.10;;
40453;SDS011;26160;51.858;4.398;2022-12-07T15:19:14;4.60;;;1.43;;
40453;SDS011;26160;51.858;4.398;2022-12-07T15:21:48;7.90;;;2.60;;
40453;SDS011;26160;51.858;4.398;2022-12-07T15:24:15;6.00;;;2.57;;
40453;SDS011;26160;51.858;4.398;2022-12-07T15:26:41;10.33;;;2.60;;
40453;SDS011;26160;51.858;4.398;2022-12-07T15:29:07;7.60;;;2.23;;
40453;SDS011;26160;51.858;4.398;2022-12-07T15:31:34;7.90;;;1.70;;
40453;SDS011;26160;51.858;4.398;2022-12-07T15:34:01;2.67;;;1.57;;
40453;SDS011;26160;51.858;4.398;2022-12-07T15:36:28;5.77;;;1.73;;
40453;SDS011;26160;51.858;4.398;2022-12-07T15:38:58;5.23;;;1.37;;
40453;SDS011;26160;51.858;4.398;2022-12-07T15:41:24;7.93;;;1.80;;
40453;SDS011;26160;51.858;4.398;2022-12-07T15:43:51;5.83;;;1.30;;
40453;SDS011;26160;51.858;4.398;2022-12-07T15:46:37;5.87;;;1.60;;
40453;SDS011;26160;51.858;4.398;2022-12-07T15:49:09;5.47;;;2.20;;
40453;SDS011;26160;51.858;4.398;2022-12-07T15:51:37;10.40;;;3.10;;
40453;SDS011;26160;51.858;4.398;2022-12-07T15:54:04;6.87;;;2.83;;
40453;SDS011;26160;51.858;4.398;2022-12-07T15:56:30;11.50;;;3.33;;
40453;SDS011;26160;51.858;4.398;2022-12-07T15:58:56;13.10;;;3.23;;
40453;SDS011;26160;51.858;4.398;2022-12-07T16:01:23;11.50;;;3.20;;
40453;SDS011;26160;51.858;4.398;2022-12-07T16:03:49;14.27;;;2.47;;
40453;SDS011;26160;51.858;4.398;2022-12-07T16:06:16;10.17;;;0.97;;
40453;SDS011;26160;51.858;4.398;2022-12-07T16:08:44;5.27;;;1.03;;
40453;SDS011;26160;51.858;4.398;2022-12-07T16:11:10;8.07;;;1.37;;
40453;SDS011;26160;51.858;4.398;2022-12-07T16:13:37;6.43;;;1.27;;
40453;SDS011;26160;51.858;4.398;2022-12-07T16:16:10;7.77;;;1.30;;
40453;SDS011;26160;51.858;4.398;2022-12-07T16:18:39;4.87;;;1.00;;
40453;SDS011;26160;51.858;4.398;2022-12-07T16:21:07;6.60;;;1.00;;
40453;SDS011;26160;51.858;4.398;2022-12-07T16:23:33;13.23;;;2.33;;
40453;SDS011;26160;51.858;4.398;2022-12-07T16:26:12;8.47;;;1.17;;
40453;SDS011;26160;51.858;4.398;2022-12-07T16:28:40;5.83;;;1.97;;
40453;SDS011;26160;51.858;4.398;2022-12-07T16:31:10;3.73;;;1.43;;
40453;SDS011;26160;51.858;4.398;2022-12-07T16:33:41;8.50;;;2.10;;
40453;SDS011;26160;51.858;4.398;2022-12-07T16:36:08;9.40;;;1.40;;
40453;SDS011;26160;51.858;4.398;2022-12-07T16:38:39;5.63;;;1.23;;
40453;SDS011;26160;51.858;4.398;2022-12-07T16:41:06;5.77;;;1.33;;
40453;SDS011;26160;51.858;4.398;2022-12-07T16:43:32;4.27;;;1.10;;
40453;SDS011;26160;51.858;4.398;2022-12-07T16:45:59;3.57;;;0.77;;
40453;SDS011;26160;51.858;4.398;2022-12-07T16:48:25;4.83;;;0.90;;
40453;SDS011;26160;51.858;4.398;2022-12-07T16:50:52;6.00;;;1.00;;
40453;SDS011;26160;51.858;4.398;2022-12-07T16:53:20;8.37;;;1.40;;
40453;SDS011;26160;51.858;4.398;2022-12-07T16:55:47;7.20;;;1.50;;
40453;SDS011;26160;51.858;4.398;2022-12-07T16:58:14;4.60;;;0.90;;
40453;SDS011;26160;51.858;4.398;2022-12-07T17:00:41;4.50;;;1.20;;
40453;SDS011;26160;51.858;4.398;2022-12-07T17:03:08;8.10;;;1.30;;
40453;SDS011;26160;51.858;4.398;2022-12-07T17:05:39;5.20;;;1.13;;
40453;SDS011;26160;51.858;4.398;2022-12-07T17:08:06;7.90;;;1.00;;
40453;SDS011;26160;51.858;4.398;2022-12-07T17:10:37;4.00;;;1.57;;
40453;SDS011;26160;51.858;4.398;2022-12-07T17:13:06;6.40;;;1.10;;
40453;SDS011;26160;51.858;4.398;2022-12-07T17:16:00;4.47;;;1.33;;
40453;SDS011;26160;51.858;4.398;2022-12-07T17:18:29;3.40;;;1.47;;
40453;SDS011;26160;51.858;4.398;2022-12-07T17:21:03;9.43;;;1.90;;